Latest Weather Observations for Moorabbin Airport

IDV60901

Issued at 3:51 pm EDT Tuesday 3 March 2015 (issued every 10 minutes, with the page automatically refreshed every 10 minutes)

About weather observations | Map of Melbourne area stations | Latest observations for Melbourne area | Other Formats
Station Details ID: 086077 Name: MOORABBIN AIRPORT Lat: -37.98 Lon: 145.10 Height: 12.1 m
Data from the previous 72 hours. | See also: Recent months at Moorabbin Airport
Date/Time
EDT
Tmp

°C
App
Tmp
°C
Dew
Point
°C
Rel
Hum
%
Delta-T

°C
Wind Press
QNH
hPa
Press
MSL
hPa
Rain
since
9 am
mm
Dir
 
Spd
km/h
Gust
km/h
Spd
kts
Gust
kts
03/03:30pm 21.5 18.3 11.8 54 5.4 SW 20 28 11 15 1015.9 1015.9 0.0
03/03:00pm 21.0 17.8 11.9 56 5.1 SW 20 28 11 15 1016.2 1016.2 0.0
03/02:30pm 21.0 18.1 12.4 58 4.8 SW 19 26 10 14 1016.4 1016.4 0.0
03/02:00pm 21.0 18.1 12.2 57 4.9 SW 19 32 10 17 1016.5 1016.5 0.0
03/01:30pm 21.3 18.3 12.7 58 4.9 SSW 20 28 11 15 1016.7 1016.7 0.0
03/01:00pm 20.9 18.2 12.8 60 4.6 SSW 19 26 10 14 1016.8 1016.8 0.0
03/12:30pm 20.7 17.7 12.1 58 4.8 SSW 19 26 10 14 1017.2 1017.2 0.0
03/12:00pm 20.9 18.2 12.8 60 4.6 SSW 19 28 10 15 1017.3 1017.3 0.0
03/11:30am 19.7 17.6 12.5 63 4.0 SSW 15 22 8 12 1017.5 1017.5 0.0
03/11:00am 19.8 17.7 12.3 62 4.2 SSW 15 20 8 11 1017.4 1017.4 0.0
03/10:30am 19.9 18.0 11.9 60 4.4 S 13 22 7 12 1017.2 1017.2 0.0
03/10:00am 19.0 17.0 11.6 62 4.1 S 13 17 7 9 1017.4 1017.4 0.0
03/09:30am 18.8 16.8 11.6 63 4.0 SSE 13 17 7 9 1017.2 1017.2 0.0
03/09:00am 18.6 17.3 12.4 67 3.4 SE 11 15 6 8 1016.8 1016.8 0.0
03/08:30am 17.5 16.5 12.2 71 2.9 SSE 9 13 5 7 1016.7 1016.7 0.0
03/08:00am 17.0 15.9 12.1 73 2.7 SSE 9 13 5 7 1016.6 1016.6 0.0
03/07:30am 15.4 14.1 11.4 77 2.1 SSE 9 11 5 6 1016.3 1016.3 0.0
03/07:00am 16.0 15.1 11.4 74 2.5 SSE 7 9 4 5 1015.9 1015.9 0.0
03/06:30am 16.6 15.7 11.5 72 2.8 SSE 7 11 4 6 1015.6 1015.6 0.0
03/05:30am 16.9 15.8 11.8 72 2.8 SE 9 13 5 7 1015.1 1015.1 0.0
03/05:00am 17.0 16.0 12.3 74 2.6 SSE 9 11 5 6 1015.3 1015.3 0.0
03/04:30am 17.3 16.3 12.2 72 2.8 SSE 9 13 5 7 1015.2 1015.2 0.0
03/04:00am 17.6 17.0 12.3 71 2.9 SE 7 11 4 6 1015.5 1015.5 0.0
03/03:30am 17.7 15.8 11.7 68 3.3 S 13 15 7 8 1015.3 1015.3 0.0
03/03:00am 17.7 16.9 13.0 74 2.6 SSE 9 13 5 7 1015.3 1015.3 0.0
03/02:30am 17.2 16.9 13.3 78 2.2 SSE 7 9 4 5 1015.1 1015.1 0.0
03/02:00am 17.0 16.3 13.3 79 2.1 SW 9 9 5 5 1015.9 1015.9 0.0
03/01:30am 17.1 16.8 13.4 79 2.1 SW 7 9 4 5 1015.5 1015.5 0.0
03/01:00am 17.2 18.2 13.1 77 2.3 CALM 0 0 0 0 1015.4 1015.4 0.0
03/12:30am 17.6 17.5 13.3 76 2.4 ENE 6 7 3 4 1015.6 1015.6 0.0
 
Date/Time
EDT
Tmp

°C
App
Tmp
°C
Dew
Point
°C
Rel
Hum
%
Delta-T

°C
Wind Press
QNH
hPa
Press
MSL
hPa
Rain
since
9 am
mm
Dir
 
Spd
km/h
Gust
km/h
Spd
kts
Gust
kts
02/11:30pm 17.4 16.7 13.1 76 2.4 SE 9 11 5 6 1015.3 1015.3 0.0
02/11:00pm 17.3 16.5 12.8 75 2.5 ESE 9 11 5 6 1015.6 1015.6 0.0
02/10:30pm 17.6 17.2 12.9 74 2.6 SE 7 11 4 6 1015.6 1015.6 0.0
02/10:00pm 17.9 16.6 12.6 71 2.9 SE 11 15 6 8 1015.6 1015.6 0.0
02/09:30pm 18.4 16.7 12.4 68 3.3 SE 13 17 7 9 1015.4 1015.4 0.0
02/09:00pm 18.8 16.5 11.9 64 3.8 ESE 15 19 8 10 1014.9 1014.9 0.0
02/08:30pm 19.5 16.7 11.5 60 4.4 SE 17 20 9 11 1014.6 1014.6 0.0
02/08:00pm 20.1 17.3 11.3 57 4.8 SSE 17 24 9 13 1014.4 1014.4 0.0
02/07:30pm 20.6 17.6 10.7 53 5.4 SSW 17 22 9 12 1014.0 1014.0 0.0
02/07:00pm 20.7 17.3 10.5 52 5.5 SSW 19 22 10 12 1013.8 1013.8 0.0
02/06:30pm 21.3 18.4 9.5 47 6.3 SSW 15 20 8 11 1013.6 1013.6 0.0
02/05:30pm 21.9 18.9 9.4 45 6.7 SSW 15 19 8 10 1013.5 1013.5 0.0
02/05:00pm 21.8 19.0 10.0 47 6.4 SSW 15 20 8 11 1013.8 1013.8 0.0
02/04:30pm 21.4 18.4 10.6 50 5.9 SW 17 20 9 11 1014.2 1014.2 0.0
02/04:00pm 22.3 19.7 10.8 48 6.3 SSW 15 19 8 10 1014.2 1014.2 0.0
02/03:30pm 21.2 19.3 9.1 46 6.4 SSW 9 17 5 9 1014.3 1014.3 0.0
02/03:00pm 20.8 18.5 9.1 47 6.2 S 11 17 6 9 1015.1 1015.1 0.0
02/02:30pm 20.1 17.7 10.2 53 5.3 SSW 13 17 7 9 1015.6 1015.6 0.0
02/02:00pm 19.5 17.0 9.7 53 5.2 SSW 13 20 7 11 1015.8 1015.8 0.0
02/01:30pm 18.8 15.2 8.5 51 5.3 WSW 17 24 9 13 1016.4 1016.4 0.0
02/01:00pm 19.6 16.5 8.9 50 5.6 SW 15 20 8 11 1016.4 1016.4 0.0
02/12:30pm 21.7 20.2 9.3 45 6.6 N 7 15 4 8 1016.5 1016.5 0.0
02/12:00pm 19.8 17.4 6.9 43 6.5 NE 9 15 5 8 1017.1 1017.1 0.0
02/11:30am 19.2 17.2 7.3 46 6.0 ENE 7 13 4 7 1017.6 1017.6 0.0
02/11:00am 18.7 16.5 9.2 54 5.0 E 11 19 6 10 1018.2 1018.2 0.0
02/10:30am 17.5 14.5 7.8 53 4.9 ENE 13 20 7 11 1018.2 1018.2 0.0
02/10:00am 17.2 14.3 8.1 55 4.6 ENE 13 20 7 11 1018.4 1018.4 0.0
02/09:30am 16.3 13.0 8.0 58 4.2 E 15 22 8 12 1018.5 1018.5 0.0
02/09:00am 15.3 13.7 8.8 65 3.3 ENE 7 11 4 6 1018.6 1018.6 0.0
02/08:30am 13.8 13.0 9.6 76 2.2 E 4 7 2 4 1018.4 1018.4 0.0
02/08:00am 11.5 10.7 9.8 89 0.9 SE 4 6 2 3 1018.4 1018.4 0.0
02/07:30am 9.8 8.2 8.2 90 0.8 SE 6 7 3 4 1018.1 1018.1 0.0
02/07:00am 10.3 10.0 8.6 89 0.8 CALM 0 0 0 0 1018.1 1018.1 0.0
02/06:30am 10.5 10.2 8.8 89 0.8 CALM 0 0 0 0 1018.1 1018.1 0.0
02/06:00am 10.2 9.7 8.0 86 1.1 CALM 0 4 0 2 1018.0 1018.0 0.0
02/05:30am 11.1 9.6 8.5 84 1.3 N 6 9 3 5 1017.8 1017.8 0.0
02/05:00am 12.1 10.6 9.3 83 1.4 N 7 9 4 5 1018.0 1018.0 0.0
02/04:30am 11.6 10.0 7.9 78 1.8 ESE 6 9 3 5 1017.9 1017.9 0.0
02/04:00am 11.3 9.7 8.2 81 1.5 SE 6 7 3 4 1017.9 1017.9 0.0
02/03:30am 11.9 9.8 8.4 79 1.7 ESE 9 9 5 5 1018.1 1018.1 0.0
02/03:00am 12.9 11.4 9.2 78 1.9 ESE 7 9 4 5 1018.6 1018.6 0.0
02/02:30am 13.0 11.7 9.1 77 2.0 E 6 9 3 5 1018.5 1018.5 0.0
02/02:00am 13.0 11.8 9.4 79 1.8 NNE 6 7 3 4 1018.6 1018.6 0.0
02/01:30am 13.8 12.4 8.8 72 2.5 S 6 11 3 6 1018.5 1018.5 0.0
02/01:00am 13.9 12.0 9.1 73 2.4 S 9 13 5 7 1018.3 1018.3 0.0
02/12:30am 14.3 11.7 9.3 72 2.6 SSE 13 15 7 8 1017.8 1017.8 0.0
02/12:00am 14.6 12.5 9.6 72 2.6 SSE 11 15 6 8 1018.0 1018.0 0.0
 
Date/Time
EDT
Tmp

°C
App
Tmp
°C
Dew
Point
°C
Rel
Hum
%
Delta-T

°C
Wind Press
QNH
hPa
Press
MSL
hPa
Rain
since
9 am
mm
Dir
 
Spd
km/h
Gust
km/h
Spd
kts
Gust
kts
01/11:30pm 15.0 13.0 10.0 72 2.6 S 11 19 6 10 1018.3 1018.3 0.0
01/11:00pm 15.3 12.9 10.1 71 2.7 S 13 17 7 9 1018.4 1018.4 0.0
01/10:30pm 15.3 12.6 10.3 72 2.6 S 15 20 8 11 1018.3 1018.3 0.0
01/10:00pm 15.7 13.0 10.5 71 2.7 SSE 15 20 8 11 1018.3 1018.3 0.0
01/09:30pm 16.1 13.5 10.8 71 2.8 SSE 15 19 8 10 1018.0 1018.0 0.0
01/09:00pm 15.9 13.2 10.4 70 2.9 S 15 20 8 11 1017.9 1017.9 0.0
01/08:30pm 16.7 13.2 10.8 68 3.2 SSE 20 26 11 14 1017.4 1017.4 0.0
01/08:00pm 17.5 13.9 10.6 64 3.7 SSE 20 26 11 14 1017.2 1017.2 0.0
01/07:30pm 18.1 14.7 10.5 61 4.1 SSE 19 24 10 13 1017.1 1017.1 0.0
01/07:00pm 19.2 15.4 11.0 59 4.5 S 22 32 12 17 1016.8 1016.8 0.0
01/06:30pm 19.3 14.6 10.6 57 4.7 S 26 35 14 19 1016.5 1016.5 0.0
01/06:00pm 19.3 14.0 11.1 59 4.5 SSW 30 39 16 21 1016.5 1016.5 0.0
01/05:30pm 20.0 15.2 11.5 58 4.7 SSW 28 39 15 21 1016.1 1016.1 0.0
01/05:00pm 20.5 15.5 10.9 54 5.2 SSW 28 37 15 20 1015.7 1015.7 0.0
01/04:30pm 20.3 15.0 9.8 51 5.6 SSW 28 41 15 22 1015.5 1015.5 0.0
01/04:00pm 20.5 15.5 10.9 54 5.2 SSW 28 37 15 20 1015.3 1015.3 0.0
01/03:30pm 20.3 15.5 11.5 57 4.9 SSW 28 39 15 21 1015.4 1015.4 0.0
01/03:00pm 20.8 16.0 11.7 56 5.1 SW 28 37 15 20 1015.3 1015.3 0.0
01/02:30pm 20.7 16.3 11.6 56 5.0 SSW 26 35 14 19 1015.0 1015.0 0.0
01/02:00pm 20.5 16.2 12.0 58 4.7 SSW 26 33 14 18 1014.9 1014.9 0.0
01/01:30pm 20.3 15.5 11.8 58 4.7 SSW 28 37 15 20 1014.6 1014.6 0.0
01/01:00pm 20.5 16.1 11.7 57 4.9 SW 26 35 14 19 1014.6 1014.6 0.0
01/12:30pm 20.3 16.2 11.5 57 4.9 SSW 24 35 13 19 1014.4 1014.4 0.0
01/12:00pm 19.6 15.0 10.9 57 4.7 SSW 26 39 14 21 1014.3 1014.3 0.0
01/11:30am 19.9 15.3 10.9 56 4.9 SSW 26 35 14 19 1013.8 1013.8 0.0
01/11:00am 19.6 14.6 10.9 57 4.7 SSW 28 39 15 21 1013.4 1013.4 0.0
01/10:30am 19.2 15.7 12.2 64 3.9 SW 22 32 12 17 1012.9 1012.9 0.0
01/10:00am 18.9 15.5 11.2 61 4.2 SSW 20 30 11 16 1012.5 1012.5 0.0
01/09:30am 18.6 14.7 10.7 60 4.3 SSW 22 32 12 17 1011.9 1011.9 0.0
01/09:00am 18.1 14.2 10.7 62 4.0 SSW 22 33 12 18 1011.5 1011.5 17.6
01/08:30am 17.9 14.4 11.0 64 3.7 SSW 20 28 11 15 1011.0 1011.0 17.6
01/08:00am 17.0 14.4 12.1 73 2.7 SSW 17 26 9 14 1010.5 1010.5 17.4
01/07:30am 17.3 14.6 11.8 70 3.0 SSW 17 28 9 15 1009.9 1009.9 17.4
01/07:00am 16.9 14.4 12.2 74 2.6 SW 17 20 9 11 1009.3 1009.3 17.4
01/06:30am 17.2 14.4 12.7 75 2.5 SW 19 28 10 15 1008.8 1008.8 17.4
01/06:00am 17.5 14.4 12.2 71 2.9 SSW 20 30 11 16 1008.3 1008.3 17.4
01/05:30am 17.6 13.2 11.6 68 3.3 SW 26 35 14 19 1007.8 1007.8 17.4
01/05:00am 17.6 12.9 10.7 64 3.7 SW 26 39 14 21 1007.3 1007.3 17.4
01/04:30am 17.6 12.5 11.8 69 3.2 SSW 30 43 16 23 1006.9 1006.9 17.4
01/04:00am 17.5 13.5 14.0 80 2.0 SW 28 41 15 22 1006.6 1006.6 17.4
01/03:30am 17.3 13.4 14.4 83 1.7 SSW 28 41 15 22 1006.3 1006.3 17.4
01/03:00am 17.3 14.6 15.6 90 1.0 SSW 24 39 13 21 1006.0 1006.0 17.0
01/02:30am 17.4 13.8 16.3 93 0.7 SSW 30 43 16 23 1005.8 1005.8 16.8
01/02:00am 17.7 15.7 17.4 98 0.2 SW 24 41 13 22 1005.7 1005.7 16.4
01/01:30am 18.5 17.6 18.2 98 0.2 SW 20 30 11 16 1005.5 1005.5 15.4
01/01:00am 18.6 18.2 18.1 97 0.3 W 17 30 9 16 1005.3 1005.3 14.0
01/12:53am 19.3 21.2 19.0 98 0.2 WNW 7 11 4 6 1005.2 1005.2 12.6
01/12:30am 19.4 20.6 19.1 98 0.2 NNE 11 15 6 8 1005.4 1005.4 11.8
01/12:00am 19.3 20.9 19.1 99 0.1 NNE 9 15 5 8 1004.9 1004.9 11.8
 
Date/Time
EDT
Tmp

°C
App
Tmp
°C
Dew
Point
°C
Rel
Hum
%
Delta-T

°C
Wind Press
QNH
hPa
Press
MSL
hPa
Rain
since
9 am
mm
Dir
 
Spd
km/h
Gust
km/h
Spd
kts
Gust
kts
28/11:30pm 19.5 21.2 19.3 99 0.1 NNE 9 11 5 6 1005.3 1005.3 11.0
28/11:00pm 19.5 20.8 19.2 98 0.2 NNE 11 13 6 7 1006.0 1006.0 10.6
28/10:30pm 19.6 22.4 18.8 95 0.5 NW 2 9 1 5 1006.5 1006.5 8.0
28/10:00pm 19.5 19.7 18.5 94 0.6 SSW 15 24 8 13 1005.9 1005.9 5.0
28/09:30pm 19.4 16.9 18.1 92 0.8 SSW 28 43 15 23 1004.9 1004.9 3.6
28/09:27pm 19.4 16.2 18.1 92 0.8 SSW 32 48 17 26 1004.8 1004.8 3.4
28/09:00pm 20.2 15.3 17.4 84 1.7 WSW 39 67 21 36 1005.0 1005.0 1.2
28/08:40pm 20.1 13.4 16.1 78 2.4 WSW 46 83 25 45 1003.7 1003.7 0.6
28/08:38pm 20.5 14.7 15.9 75 2.7 WSW 41 83 22 45 1003.3 1003.3 0.4
28/08:34pm 24.2 21.7 17.0 64 4.4 SW 26 63 14 34 1002.8 1002.8 0.2
28/08:30pm 26.2 24.4 15.9 53 6.3 SW 20 32 11 17 1000.8 1000.8 0.0
28/08:28pm 27.7 25.3 14.3 43 8.0 SSW 20 28 11 15 1000.5 1000.5 0.0
28/08:00pm 29.6 26.6 10.7 31 10.8 NE 17 24 9 13 998.5 998.5 0.0
28/07:30pm 30.6 27.4 10.0 28 11.7 NNE 17 22 9 12 998.7 998.7 0.0
28/07:00pm 31.7 27.5 9.8 26 12.5 N 22 30 12 16 999.1 999.1 0.0
28/06:30pm 32.4 27.5 9.9 25 12.8 N 26 33 14 18 999.5 999.5 0.0
28/06:00pm 32.4 27.5 9.9 25 12.9 N 26 43 14 23 1000.0 1000.0 0.0
28/05:30pm 32.0 28.1 10.7 27 12.3 N 22 28 12 15 1000.7 1000.7 0.0
28/05:00pm 30.6 27.3 11.5 30 11.1 N 20 30 11 16 1001.3 1001.3 0.0
28/04:30pm 31.3 27.2 12.6 31 11.1 N 26 39 14 21 1001.8 1001.8 0.0
28/04:00pm 30.9 28.3 13.2 34 10.6 NNE 19 30 10 16 1002.1 1002.1 0.0

Latest Capital City Observations: Canberra | Sydney | Melbourne | Brisbane | Adelaide | Perth | Hobart | Darwin

Other Formats:

Comma delimited format used in spreadsheet applications
http://www.bom.gov.au/fwo/IDV60901/IDV60901.94870.axf

JavaScript Object Notation format (JSON) in row-major order
http://www.bom.gov.au/fwo/IDV60901/IDV60901.94870.json